sensor_id;sensor_type;location;lat;lon;timestamp;P1;durP1;ratioP1;P2;durP2;ratioP2
53391;SDS011;41667;51.922;8.850;2024-01-27T00:01:11;13.85;;;3.10;;
53391;SDS011;41667;51.922;8.850;2024-01-27T00:03:36;11.27;;;3.38;;
53391;SDS011;41667;51.922;8.850;2024-01-27T00:06:02;7.18;;;2.78;;
53391;SDS011;41667;51.922;8.850;2024-01-27T00:08:27;12.88;;;3.33;;
53391;SDS011;41667;51.922;8.850;2024-01-27T00:10:52;22.55;;;4.30;;
53391;SDS011;41667;51.922;8.850;2024-01-27T00:13:18;20.77;;;3.83;;
53391;SDS011;41667;51.922;8.850;2024-01-27T00:15:43;10.50;;;3.08;;
53391;SDS011;41667;51.922;8.850;2024-01-27T00:18:08;12.93;;;2.88;;
53391;SDS011;41667;51.922;8.850;2024-01-27T00:20:34;13.50;;;2.90;;
53391;SDS011;41667;51.922;8.850;2024-01-27T00:22:59;11.63;;;4.03;;
53391;SDS011;41667;51.922;8.850;2024-01-27T00:25:24;15.20;;;3.67;;
53391;SDS011;41667;51.922;8.850;2024-01-27T00:27:49;11.05;;;2.75;;
53391;SDS011;41667;51.922;8.850;2024-01-27T00:30:15;8.02;;;4.38;;
53391;SDS011;41667;51.922;8.850;2024-01-27T00:32:40;11.60;;;3.70;;
53391;SDS011;41667;51.922;8.850;2024-01-27T00:35:07;8.55;;;2.60;;
53391;SDS011;41667;51.922;8.850;2024-01-27T00:37:32;13.55;;;3.97;;
53391;SDS011;41667;51.922;8.850;2024-01-27T00:39:58;5.22;;;3.25;;
53391;SDS011;41667;51.922;8.850;2024-01-27T00:42:23;12.13;;;3.47;;
53391;SDS011;41667;51.922;8.850;2024-01-27T00:44:49;19.05;;;3.92;;
53391;SDS011;41667;51.922;8.850;2024-01-27T00:47:15;15.05;;;2.67;;
53391;SDS011;41667;51.922;8.850;2024-01-27T00:49:40;8.15;;;2.92;;
53391;SDS011;41667;51.922;8.850;2024-01-27T00:52:05;10.30;;;3.10;;
53391;SDS011;41667;51.922;8.850;2024-01-27T00:54:31;7.47;;;3.13;;
53391;SDS011;41667;51.922;8.850;2024-01-27T00:56:56;15.00;;;4.05;;
53391;SDS011;41667;51.922;8.850;2024-01-27T00:59:21;7.55;;;3.17;;
53391;SDS011;41667;51.922;8.850;2024-01-27T01:01:47;7.32;;;3.35;;
53391;SDS011;41667;51.922;8.850;2024-01-27T01:04:12;7.03;;;2.90;;
53391;SDS011;41667;51.922;8.850;2024-01-27T01:06:38;15.95;;;3.67;;
53391;SDS011;41667;51.922;8.850;2024-01-27T01:09:04;9.48;;;3.08;;
53391;SDS011;41667;51.922;8.850;2024-01-27T01:11:29;25.65;;;3.78;;
53391;SDS011;41667;51.922;8.850;2024-01-27T01:13:55;9.40;;;2.50;;
53391;SDS011;41667;51.922;8.850;2024-01-27T01:16:20;19.77;;;3.67;;
53391;SDS011;41667;51.922;8.850;2024-01-27T01:18:45;8.55;;;3.25;;
53391;SDS011;41667;51.922;8.850;2024-01-27T01:21:11;12.40;;;3.20;;
53391;SDS011;41667;51.922;8.850;2024-01-27T01:23:36;9.43;;;3.38;;
53391;SDS011;41667;51.922;8.850;2024-01-27T01:26:01;4.88;;;2.33;;
53391;SDS011;41667;51.922;8.850;2024-01-27T01:28:27;13.27;;;3.05;;
53391;SDS011;41667;51.922;8.850;2024-01-27T01:30:53;10.38;;;3.28;;
53391;SDS011;41667;51.922;8.850;2024-01-27T01:33:18;10.40;;;3.42;;
53391;SDS011;41667;51.922;8.850;2024-01-27T01:35:44;15.15;;;3.53;;
53391;SDS011;41667;51.922;8.850;2024-01-27T01:38:09;12.55;;;2.97;;
53391;SDS011;41667;51.922;8.850;2024-01-27T01:40:34;9.63;;;4.30;;
53391;SDS011;41667;51.922;8.850;2024-01-27T01:42:59;12.55;;;4.15;;
53391;SDS011;41667;51.922;8.850;2024-01-27T01:45:25;10.77;;;3.65;;
53391;SDS011;41667;51.922;8.850;2024-01-27T01:47:50;10.07;;;2.75;;
53391;SDS011;41667;51.922;8.850;2024-01-27T01:50:15;13.13;;;3.67;;
53391;SDS011;41667;51.922;8.850;2024-01-27T01:52:42;7.07;;;2.53;;
53391;SDS011;41667;51.922;8.850;2024-01-27T01:55:08;12.35;;;3.15;;
53391;SDS011;41667;51.922;8.850;2024-01-27T01:57:33;4.95;;;2.25;;
53391;SDS011;41667;51.922;8.850;2024-01-27T01:59:58;8.93;;;2.85;;
53391;SDS011;41667;51.922;8.850;2024-01-27T02:02:24;18.75;;;5.03;;
53391;SDS011;41667;51.922;8.850;2024-01-27T02:04:49;11.70;;;2.97;;
53391;SDS011;41667;51.922;8.850;2024-01-27T02:07:14;8.18;;;2.42;;
53391;SDS011;41667;51.922;8.850;2024-01-27T02:09:40;14.77;;;3.40;;
53391;SDS011;41667;51.922;8.850;2024-01-27T02:12:05;10.73;;;2.67;;
53391;SDS011;41667;51.922;8.850;2024-01-27T02:14:31;15.73;;;4.85;;
53391;SDS011;41667;51.922;8.850;2024-01-27T02:16:57;19.45;;;3.53;;
53391;SDS011;41667;51.922;8.850;2024-01-27T02:19:22;10.18;;;3.30;;
53391;SDS011;41667;51.922;8.850;2024-01-27T02:21:48;12.15;;;3.80;;
53391;SDS011;41667;51.922;8.850;2024-01-27T02:24:13;10.13;;;3.40;;
53391;SDS011;41667;51.922;8.850;2024-01-27T02:26:39;14.00;;;3.78;;
53391;SDS011;41667;51.922;8.850;2024-01-27T02:29:04;10.18;;;3.70;;
53391;SDS011;41667;51.922;8.850;2024-01-27T02:33:57;7.40;;;2.78;;
53391;SDS011;41667;51.922;8.850;2024-01-27T02:36:22;11.55;;;4.20;;
53391;SDS011;41667;51.922;8.850;2024-01-27T02:38:47;12.30;;;3.05;;
53391;SDS011;41667;51.922;8.850;2024-01-27T02:41:13;10.00;;;3.92;;
53391;SDS011;41667;51.922;8.850;2024-01-27T02:43:39;15.23;;;3.78;;
53391;SDS011;41667;51.922;8.850;2024-01-27T02:46:09;13.35;;;4.85;;
53391;SDS011;41667;51.922;8.850;2024-01-27T02:48:39;8.82;;;2.85;;
53391;SDS011;41667;51.922;8.850;2024-01-27T02:51:05;12.50;;;3.47;;
53391;SDS011;41667;51.922;8.850;2024-01-27T02:53:30;15.13;;;3.83;;
53391;SDS011;41667;51.922;8.850;2024-01-27T02:55:56;8.13;;;2.80;;
53391;SDS011;41667;51.922;8.850;2024-01-27T02:58:21;17.85;;;3.45;;
53391;SDS011;41667;51.922;8.850;2024-01-27T03:00:46;5.18;;;3.40;;
53391;SDS011;41667;51.922;8.850;2024-01-27T03:03:11;12.50;;;3.63;;
53391;SDS011;41667;51.922;8.850;2024-01-27T03:05:37;7.57;;;3.42;;
53391;SDS011;41667;51.922;8.850;2024-01-27T03:08:02;12.63;;;3.88;;
53391;SDS011;41667;51.922;8.850;2024-01-27T03:10:27;20.67;;;4.57;;
53391;SDS011;41667;51.922;8.850;2024-01-27T03:12:54;22.40;;;4.55;;
53391;SDS011;41667;51.922;8.850;2024-01-27T03:15:19;18.55;;;3.92;;
53391;SDS011;41667;51.922;8.850;2024-01-27T03:17:44;11.35;;;3.35;;
53391;SDS011;41667;51.922;8.850;2024-01-27T03:20:10;4.40;;;2.80;;
53391;SDS011;41667;51.922;8.850;2024-01-27T03:22:35;13.60;;;3.80;;
53391;SDS011;41667;51.922;8.850;2024-01-27T03:25:01;18.52;;;4.50;;
53391;SDS011;41667;51.922;8.850;2024-01-27T03:27:26;14.00;;;3.80;;
53391;SDS011;41667;51.922;8.850;2024-01-27T03:29:51;10.00;;;4.40;;
53391;SDS011;41667;51.922;8.850;2024-01-27T03:32:16;15.85;;;4.68;;
53391;SDS011;41667;51.922;8.850;2024-01-27T03:34:43;11.73;;;4.05;;
53391;SDS011;41667;51.922;8.850;2024-01-27T03:37:10;16.20;;;4.22;;
53391;SDS011;41667;51.922;8.850;2024-01-27T03:39:35;14.35;;;4.50;;
53391;SDS011;41667;51.922;8.850;2024-01-27T03:42:00;12.73;;;5.18;;
53391;SDS011;41667;51.922;8.850;2024-01-27T03:44:26;9.50;;;4.03;;
53391;SDS011;41667;51.922;8.850;2024-01-27T03:46:51;5.40;;;3.47;;
53391;SDS011;41667;51.922;8.850;2024-01-27T03:49:16;8.98;;;3.63;;
53391;SDS011;41667;51.922;8.850;2024-01-27T03:51:42;12.05;;;4.32;;
53391;SDS011;41667;51.922;8.850;2024-01-27T03:54:07;14.82;;;5.05;;
53391;SDS011;41667;51.922;8.850;2024-01-27T03:56:32;12.27;;;6.05;;
53391;SDS011;41667;51.922;8.850;2024-01-27T03:58:57;16.65;;;4.30;;
53391;SDS011;41667;51.922;8.850;2024-01-27T04:01:23;4.43;;;3.05;;
53391;SDS011;41667;51.922;8.850;2024-01-27T04:03:48;13.57;;;5.38;;
53391;SDS011;41667;51.922;8.850;2024-01-27T04:06:13;8.70;;;4.05;;
53391;SDS011;41667;51.922;8.850;2024-01-27T04:08:39;15.63;;;4.50;;
53391;SDS011;41667;51.922;8.850;2024-01-27T04:11:04;9.52;;;3.97;;
53391;SDS011;41667;51.922;8.850;2024-01-27T04:13:30;9.10;;;3.72;;
53391;SDS011;41667;51.922;8.850;2024-01-27T04:15:55;16.27;;;4.97;;
53391;SDS011;41667;51.922;8.850;2024-01-27T04:18:22;12.57;;;5.10;;
53391;SDS011;41667;51.922;8.850;2024-01-27T04:20:47;16.17;;;5.05;;
53391;SDS011;41667;51.922;8.850;2024-01-27T04:23:13;8.60;;;4.72;;
53391;SDS011;41667;51.922;8.850;2024-01-27T04:25:38;14.90;;;4.97;;
53391;SDS011;41667;51.922;8.850;2024-01-27T04:28:04;17.20;;;5.03;;
53391;SDS011;41667;51.922;8.850;2024-01-27T04:30:29;13.75;;;4.75;;
53391;SDS011;41667;51.922;8.850;2024-01-27T04:32:54;9.35;;;5.30;;
53391;SDS011;41667;51.922;8.850;2024-01-27T04:35:20;11.77;;;5.47;;
53391;SDS011;41667;51.922;8.850;2024-01-27T04:37:45;12.30;;;4.15;;
53391;SDS011;41667;51.922;8.850;2024-01-27T04:40:10;13.20;;;4.32;;
53391;SDS011;41667;51.922;8.850;2024-01-27T04:42:39;13.35;;;4.50;;
53391;SDS011;41667;51.922;8.850;2024-01-27T04:45:05;9.43;;;4.38;;
53391;SDS011;41667;51.922;8.850;2024-01-27T04:47:31;11.50;;;4.00;;
53391;SDS011;41667;51.922;8.850;2024-01-27T04:49:56;10.75;;;5.40;;
53391;SDS011;41667;51.922;8.850;2024-01-27T04:52:22;15.18;;;4.88;;
53391;SDS011;41667;51.922;8.850;2024-01-27T04:54:48;11.77;;;4.50;;
53391;SDS011;41667;51.922;8.850;2024-01-27T04:57:13;14.30;;;4.95;;
53391;SDS011;41667;51.922;8.850;2024-01-27T04:59:38;15.48;;;5.25;;
53391;SDS011;41667;51.922;8.850;2024-01-27T05:02:03;11.48;;;4.25;;
53391;SDS011;41667;51.922;8.850;2024-01-27T05:04:29;6.65;;;3.15;;
53391;SDS011;41667;51.922;8.850;2024-01-27T05:06:54;11.02;;;5.47;;
53391;SDS011;41667;51.922;8.850;2024-01-27T05:09:19;8.07;;;4.57;;
53391;SDS011;41667;51.922;8.850;2024-01-27T05:11:45;9.73;;;3.97;;
53391;SDS011;41667;51.922;8.850;2024-01-27T05:14:10;13.48;;;4.97;;
53391;SDS011;41667;51.922;8.850;2024-01-27T05:16:36;6.00;;;4.45;;
53391;SDS011;41667;51.922;8.850;2024-01-27T05:19:01;16.83;;;5.03;;
53391;SDS011;41667;51.922;8.850;2024-01-27T05:21:26;9.13;;;3.88;;
53391;SDS011;41667;51.922;8.850;2024-01-27T05:23:52;12.02;;;4.15;;
53391;SDS011;41667;51.922;8.850;2024-01-27T05:26:17;9.98;;;4.63;;
53391;SDS011;41667;51.922;8.850;2024-01-27T05:28:42;11.75;;;4.50;;
53391;SDS011;41667;51.922;8.850;2024-01-27T05:31:07;7.95;;;3.58;;
53391;SDS011;41667;51.922;8.850;2024-01-27T05:33:33;9.25;;;5.32;;
53391;SDS011;41667;51.922;8.850;2024-01-27T05:35:59;8.70;;;3.95;;
53391;SDS011;41667;51.922;8.850;2024-01-27T05:38:24;8.88;;;3.78;;
53391;SDS011;41667;51.922;8.850;2024-01-27T05:40:51;13.55;;;4.80;;
53391;SDS011;41667;51.922;8.850;2024-01-27T05:43:16;11.70;;;4.97;;
53391;SDS011;41667;51.922;8.850;2024-01-27T05:45:41;9.73;;;5.85;;
53391;SDS011;41667;51.922;8.850;2024-01-27T05:48:07;16.77;;;5.78;;
53391;SDS011;41667;51.922;8.850;2024-01-27T05:50:32;6.65;;;4.18;;
53391;SDS011;41667;51.922;8.850;2024-01-27T05:52:59;13.90;;;6.03;;
53391;SDS011;41667;51.922;8.850;2024-01-27T05:55:24;11.55;;;5.00;;
53391;SDS011;41667;51.922;8.850;2024-01-27T05:57:49;12.68;;;6.07;;
53391;SDS011;41667;51.922;8.850;2024-01-27T06:00:15;14.48;;;6.60;;
53391;SDS011;41667;51.922;8.850;2024-01-27T06:02:40;8.32;;;3.72;;
53391;SDS011;41667;51.922;8.850;2024-01-27T06:05:06;7.60;;;6.30;;
53391;SDS011;41667;51.922;8.850;2024-01-27T06:07:33;14.20;;;6.68;;
53391;SDS011;41667;51.922;8.850;2024-01-27T06:09:59;15.75;;;8.57;;
53391;SDS011;41667;51.922;8.850;2024-01-27T06:12:24;14.93;;;7.45;;
53391;SDS011;41667;51.922;8.850;2024-01-27T06:14:50;13.63;;;6.80;;
53391;SDS011;41667;51.922;8.850;2024-01-27T06:17:15;20.52;;;6.85;;
53391;SDS011;41667;51.922;8.850;2024-01-27T06:19:41;13.27;;;7.68;;
53391;SDS011;41667;51.922;8.850;2024-01-27T06:22:06;14.93;;;6.78;;
53391;SDS011;41667;51.922;8.850;2024-01-27T06:24:31;12.38;;;7.80;;
53391;SDS011;41667;51.922;8.850;2024-01-27T06:26:57;11.40;;;7.70;;
53391;SDS011;41667;51.922;8.850;2024-01-27T06:29:22;20.95;;;8.48;;
53391;SDS011;41667;51.922;8.850;2024-01-27T06:31:48;14.02;;;7.93;;
53391;SDS011;41667;51.922;8.850;2024-01-27T06:34:13;15.65;;;9.35;;
53391;SDS011;41667;51.922;8.850;2024-01-27T06:36:39;18.30;;;7.50;;
53391;SDS011;41667;51.922;8.850;2024-01-27T06:39:04;20.90;;;9.90;;
53391;SDS011;41667;51.922;8.850;2024-01-27T06:41:29;15.40;;;8.50;;
53391;SDS011;41667;51.922;8.850;2024-01-27T06:43:54;8.55;;;6.57;;
53391;SDS011;41667;51.922;8.850;2024-01-27T06:46:20;5.82;;;4.10;;
53391;SDS011;41667;51.922;8.850;2024-01-27T06:48:45;18.85;;;8.50;;
53391;SDS011;41667;51.922;8.850;2024-01-27T06:51:10;18.20;;;7.57;;
53391;SDS011;41667;51.922;8.850;2024-01-27T06:53:36;16.60;;;7.55;;
53391;SDS011;41667;51.922;8.850;2024-01-27T06:56:02;18.90;;;7.40;;
53391;SDS011;41667;51.922;8.850;2024-01-27T06:58:27;19.50;;;8.80;;
53391;SDS011;41667;51.922;8.850;2024-01-27T07:00:52;12.70;;;7.22;;
53391;SDS011;41667;51.922;8.850;2024-01-27T07:03:18;13.13;;;7.00;;
53391;SDS011;41667;51.922;8.850;2024-01-27T07:05:43;12.63;;;5.75;;
53391;SDS011;41667;51.922;8.850;2024-01-27T07:08:08;18.58;;;8.52;;
53391;SDS011;41667;51.922;8.850;2024-01-27T07:10:34;12.65;;;5.95;;
53391;SDS011;41667;51.922;8.850;2024-01-27T07:13:00;22.55;;;8.98;;
53391;SDS011;41667;51.922;8.850;2024-01-27T07:15:25;21.90;;;9.27;;
53391;SDS011;41667;51.922;8.850;2024-01-27T07:17:51;14.00;;;6.97;;
53391;SDS011;41667;51.922;8.850;2024-01-27T07:20:17;19.08;;;8.07;;
53391;SDS011;41667;51.922;8.850;2024-01-27T07:22:42;14.75;;;6.38;;
53391;SDS011;41667;51.922;8.850;2024-01-27T07:25:07;14.60;;;7.32;;
53391;SDS011;41667;51.922;8.850;2024-01-27T07:27:35;38.80;;;7.30;;
53391;SDS011;41667;51.922;8.850;2024-01-27T07:30:00;15.70;;;7.43;;
53391;SDS011;41667;51.922;8.850;2024-01-27T07:32:26;10.30;;;6.05;;
53391;SDS011;41667;51.922;8.850;2024-01-27T07:34:51;15.73;;;6.80;;
53391;SDS011;41667;51.922;8.850;2024-01-27T07:37:16;18.52;;;6.90;;
53391;SDS011;41667;51.922;8.850;2024-01-27T07:39:41;21.10;;;7.95;;
53391;SDS011;41667;51.922;8.850;2024-01-27T07:42:07;22.27;;;6.78;;
53391;SDS011;41667;51.922;8.850;2024-01-27T07:44:32;25.55;;;9.00;;
53391;SDS011;41667;51.922;8.850;2024-01-27T07:46:57;16.88;;;7.43;;
53391;SDS011;41667;51.922;8.850;2024-01-27T07:49:23;20.50;;;7.50;;
53391;SDS011;41667;51.922;8.850;2024-01-27T07:51:48;18.95;;;8.60;;
53391;SDS011;41667;51.922;8.850;2024-01-27T07:54:13;12.57;;;7.25;;
53391;SDS011;41667;51.922;8.850;2024-01-27T07:56:38;6.90;;;5.43;;
53391;SDS011;41667;51.922;8.850;2024-01-27T07:59:04;14.98;;;6.97;;
53391;SDS011;41667;51.922;8.850;2024-01-27T08:01:29;11.48;;;7.22;;
53391;SDS011;41667;51.922;8.850;2024-01-27T08:03:54;8.85;;;6.13;;
53391;SDS011;41667;51.922;8.850;2024-01-27T08:06:26;15.15;;;7.78;;
53391;SDS011;41667;51.922;8.850;2024-01-27T08:08:53;17.80;;;7.22;;
53391;SDS011;41667;51.922;8.850;2024-01-27T08:11:19;20.92;;;6.63;;
53391;SDS011;41667;51.922;8.850;2024-01-27T08:13:44;11.77;;;6.85;;
53391;SDS011;41667;51.922;8.850;2024-01-27T08:16:09;15.55;;;7.57;;
53391;SDS011;41667;51.922;8.850;2024-01-27T08:18:37;14.73;;;7.68;;
53391;SDS011;41667;51.922;8.850;2024-01-27T08:21:03;16.85;;;7.43;;
53391;SDS011;41667;51.922;8.850;2024-01-27T08:23:29;18.80;;;7.18;;
53391;SDS011;41667;51.922;8.850;2024-01-27T08:25:54;19.02;;;6.75;;
53391;SDS011;41667;51.922;8.850;2024-01-27T08:28:20;17.38;;;6.57;;
53391;SDS011;41667;51.922;8.850;2024-01-27T08:30:45;12.13;;;6.18;;
53391;SDS011;41667;51.922;8.850;2024-01-27T08:33:10;14.90;;;6.00;;
53391;SDS011;41667;51.922;8.850;2024-01-27T08:35:36;10.52;;;5.50;;
53391;SDS011;41667;51.922;8.850;2024-01-27T08:38:01;15.63;;;7.00;;
53391;SDS011;41667;51.922;8.850;2024-01-27T08:40:28;16.85;;;6.70;;
53391;SDS011;41667;51.922;8.850;2024-01-27T08:42:53;15.27;;;6.32;;
53391;SDS011;41667;51.922;8.850;2024-01-27T08:45:19;15.68;;;7.15;;
53391;SDS011;41667;51.922;8.850;2024-01-27T08:47:44;12.90;;;6.68;;
53391;SDS011;41667;51.922;8.850;2024-01-27T08:50:09;10.88;;;6.10;;
53391;SDS011;41667;51.922;8.850;2024-01-27T08:52:35;17.48;;;6.05;;
53391;SDS011;41667;51.922;8.850;2024-01-27T08:55:01;11.35;;;5.45;;
53391;SDS011;41667;51.922;8.850;2024-01-27T08:57:26;11.82;;;5.07;;
53391;SDS011;41667;51.922;8.850;2024-01-27T08:59:51;23.73;;;7.05;;
53391;SDS011;41667;51.922;8.850;2024-01-27T09:02:16;10.90;;;5.97;;
53391;SDS011;41667;51.922;8.850;2024-01-27T09:04:42;12.45;;;5.88;;
53391;SDS011;41667;51.922;8.850;2024-01-27T09:07:07;12.45;;;5.65;;
53391;SDS011;41667;51.922;8.850;2024-01-27T09:09:32;11.13;;;5.60;;
53391;SDS011;41667;51.922;8.850;2024-01-27T09:11:58;8.38;;;5.18;;
53391;SDS011;41667;51.922;8.850;2024-01-27T09:14:23;21.77;;;5.18;;
53391;SDS011;41667;51.922;8.850;2024-01-27T09:16:49;13.70;;;5.53;;
53391;SDS011;41667;51.922;8.850;2024-01-27T09:19:14;15.48;;;5.10;;
53391;SDS011;41667;51.922;8.850;2024-01-27T09:21:39;12.13;;;5.13;;
53391;SDS011;41667;51.922;8.850;2024-01-27T09:24:05;14.18;;;5.93;;
53391;SDS011;41667;51.922;8.850;2024-01-27T09:26:30;15.20;;;5.03;;
53391;SDS011;41667;51.922;8.850;2024-01-27T09:28:56;15.65;;;5.60;;
53391;SDS011;41667;51.922;8.850;2024-01-27T09:31:21;12.07;;;5.03;;
53391;SDS011;41667;51.922;8.850;2024-01-27T09:33:51;11.23;;;3.85;;
53391;SDS011;41667;51.922;8.850;2024-01-27T09:36:17;9.10;;;4.93;;
53391;SDS011;41667;51.922;8.850;2024-01-27T09:38:43;12.48;;;4.65;;
53391;SDS011;41667;51.922;8.850;2024-01-27T09:41:09;11.88;;;3.92;;
53391;SDS011;41667;51.922;8.850;2024-01-27T09:43:35;6.00;;;3.10;;
53391;SDS011;41667;51.922;8.850;2024-01-27T09:46:02;10.50;;;4.53;;
53391;SDS011;41667;51.922;8.850;2024-01-27T09:48:27;13.90;;;4.50;;
53391;SDS011;41667;51.922;8.850;2024-01-27T09:50:53;9.23;;;5.22;;
53391;SDS011;41667;51.922;8.850;2024-01-27T09:53:19;11.05;;;5.30;;
53391;SDS011;41667;51.922;8.850;2024-01-27T09:55:45;7.30;;;3.20;;
53391;SDS011;41667;51.922;8.850;2024-01-27T09:58:10;9.05;;;4.90;;
53391;SDS011;41667;51.922;8.850;2024-01-27T10:00:36;9.25;;;4.28;;
53391;SDS011;41667;51.922;8.850;2024-01-27T10:03:02;14.05;;;6.40;;
53391;SDS011;41667;51.922;8.850;2024-01-27T10:05:28;12.50;;;3.33;;
53391;SDS011;41667;51.922;8.850;2024-01-27T10:07:54;9.30;;;3.75;;
53391;SDS011;41667;51.922;8.850;2024-01-27T10:10:19;11.00;;;4.72;;
53391;SDS011;41667;51.922;8.850;2024-01-27T10:12:44;7.93;;;3.45;;
53391;SDS011;41667;51.922;8.850;2024-01-27T10:15:20;10.95;;;4.65;;
53391;SDS011;41667;51.922;8.850;2024-01-27T10:17:45;8.77;;;4.30;;
53391;SDS011;41667;51.922;8.850;2024-01-27T10:20:11;8.80;;;3.67;;
53391;SDS011;41667;51.922;8.850;2024-01-27T10:22:40;7.82;;;4.00;;
53391;SDS011;41667;51.922;8.850;2024-01-27T10:25:09;7.78;;;3.95;;
53391;SDS011;41667;51.922;8.850;2024-01-27T10:27:35;9.43;;;5.07;;
53391;SDS011;41667;51.922;8.850;2024-01-27T10:30:00;14.57;;;4.60;;
53391;SDS011;41667;51.922;8.850;2024-01-27T10:32:26;16.02;;;4.97;;
53391;SDS011;41667;51.922;8.850;2024-01-27T10:35:07;13.02;;;4.85;;
53391;SDS011;41667;51.922;8.850;2024-01-27T10:37:36;12.63;;;5.22;;
53391;SDS011;41667;51.922;8.850;2024-01-27T10:42:34;14.63;;;4.60;;
53391;SDS011;41667;51.922;8.850;2024-01-27T10:45:00;8.60;;;4.25;;
53391;SDS011;41667;51.922;8.850;2024-01-27T10:47:26;10.20;;;4.22;;
53391;SDS011;41667;51.922;8.850;2024-01-27T10:49:54;12.13;;;4.32;;
53391;SDS011;41667;51.922;8.850;2024-01-27T10:52:20;5.95;;;3.78;;
53391;SDS011;41667;51.922;8.850;2024-01-27T10:54:47;9.45;;;3.60;;
53391;SDS011;41667;51.922;8.850;2024-01-27T10:57:13;11.13;;;3.90;;
53391;SDS011;41667;51.922;8.850;2024-01-27T10:59:39;7.90;;;4.40;;
53391;SDS011;41667;51.922;8.850;2024-01-27T11:02:06;16.58;;;4.32;;
53391;SDS011;41667;51.922;8.850;2024-01-27T11:04:36;15.95;;;4.32;;
53391;SDS011;41667;51.922;8.850;2024-01-27T11:07:03;7.97;;;3.80;;
53391;SDS011;41667;51.922;8.850;2024-01-27T11:09:30;14.75;;;3.78;;
53391;SDS011;41667;51.922;8.850;2024-01-27T11:11:56;19.38;;;4.25;;
53391;SDS011;41667;51.922;8.850;2024-01-27T11:14:22;5.65;;;2.83;;
53391;SDS011;41667;51.922;8.850;2024-01-27T11:16:47;11.05;;;3.63;;
53391;SDS011;41667;51.922;8.850;2024-01-27T11:19:12;11.90;;;4.47;;
53391;SDS011;41667;51.922;8.850;2024-01-27T11:21:38;13.82;;;3.97;;
53391;SDS011;41667;51.922;8.850;2024-01-27T11:24:13;11.90;;;4.00;;
53391;SDS011;41667;51.922;8.850;2024-01-27T11:26:42;14.20;;;3.72;;
53391;SDS011;41667;51.922;8.850;2024-01-27T11:29:07;13.00;;;3.78;;
53391;SDS011;41667;51.922;8.850;2024-01-27T11:31:34;8.65;;;3.75;;
53391;SDS011;41667;51.922;8.850;2024-01-27T11:34:00;8.07;;;3.75;;
53391;SDS011;41667;51.922;8.850;2024-01-27T11:36:25;14.70;;;3.40;;
53391;SDS011;41667;51.922;8.850;2024-01-27T11:38:52;6.32;;;3.40;;
53391;SDS011;41667;51.922;8.850;2024-01-27T11:41:27;12.25;;;3.65;;
53391;SDS011;41667;51.922;8.850;2024-01-27T11:43:53;15.55;;;3.28;;
53391;SDS011;41667;51.922;8.850;2024-01-27T11:46:19;8.70;;;4.50;;
53391;SDS011;41667;51.922;8.850;2024-01-27T11:48:45;7.53;;;3.50;;
53391;SDS011;41667;51.922;8.850;2024-01-27T11:51:11;9.20;;;2.58;;
53391;SDS011;41667;51.922;8.850;2024-01-27T11:53:36;11.00;;;2.75;;
53391;SDS011;41667;51.922;8.850;2024-01-27T11:56:03;7.85;;;3.10;;
53391;SDS011;41667;51.922;8.850;2024-01-27T11:58:29;6.38;;;2.17;;
53391;SDS011;41667;51.922;8.850;2024-01-27T12:00:55;9.20;;;3.67;;
53391;SDS011;41667;51.922;8.850;2024-01-27T12:03:20;13.55;;;3.55;;
53391;SDS011;41667;51.922;8.850;2024-01-27T12:05:46;12.25;;;3.38;;
53391;SDS011;41667;51.922;8.850;2024-01-27T12:08:11;7.22;;;2.70;;
53391;SDS011;41667;51.922;8.850;2024-01-27T12:10:37;9.13;;;2.78;;
53391;SDS011;41667;51.922;8.850;2024-01-27T12:13:02;16.40;;;3.88;;
53391;SDS011;41667;51.922;8.850;2024-01-27T12:15:27;7.72;;;3.38;;
53391;SDS011;41667;51.922;8.850;2024-01-27T12:17:53;15.48;;;3.20;;
53391;SDS011;41667;51.922;8.850;2024-01-27T12:20:18;5.13;;;2.47;;
53391;SDS011;41667;51.922;8.850;2024-01-27T12:22:44;16.52;;;3.08;;
53391;SDS011;41667;51.922;8.850;2024-01-27T12:25:09;8.65;;;2.58;;
53391;SDS011;41667;51.922;8.850;2024-01-27T12:27:36;11.43;;;3.17;;
53391;SDS011;41667;51.922;8.850;2024-01-27T12:30:02;7.57;;;2.72;;
53391;SDS011;41667;51.922;8.850;2024-01-27T12:32:27;8.90;;;2.50;;
53391;SDS011;41667;51.922;8.850;2024-01-27T12:34:53;10.45;;;3.58;;
53391;SDS011;41667;51.922;8.850;2024-01-27T12:37:21;7.25;;;2.40;;
53391;SDS011;41667;51.922;8.850;2024-01-27T12:39:46;11.63;;;2.85;;
53391;SDS011;41667;51.922;8.850;2024-01-27T12:42:12;7.88;;;3.15;;
53391;SDS011;41667;51.922;8.850;2024-01-27T12:44:37;5.72;;;2.17;;
53391;SDS011;41667;51.922;8.850;2024-01-27T12:47:03;7.88;;;2.80;;
53391;SDS011;41667;51.922;8.850;2024-01-27T12:49:29;14.73;;;3.38;;
53391;SDS011;41667;51.922;8.850;2024-01-27T12:51:54;4.30;;;2.22;;
53391;SDS011;41667;51.922;8.850;2024-01-27T12:54:19;10.60;;;2.78;;
53391;SDS011;41667;51.922;8.850;2024-01-27T12:56:45;6.93;;;2.67;;
53391;SDS011;41667;51.922;8.850;2024-01-27T12:59:10;6.18;;;2.53;;
53391;SDS011;41667;51.922;8.850;2024-01-27T13:01:36;7.53;;;3.20;;
53391;SDS011;41667;51.922;8.850;2024-01-27T13:04:02;8.57;;;2.30;;
53391;SDS011;41667;51.922;8.850;2024-01-27T13:06:27;6.30;;;2.17;;
53391;SDS011;41667;51.922;8.850;2024-01-27T13:08:52;9.68;;;2.85;;
53391;SDS011;41667;51.922;8.850;2024-01-27T13:11:19;5.03;;;2.05;;
53391;SDS011;41667;51.922;8.850;2024-01-27T13:13:45;9.73;;;3.22;;
53391;SDS011;41667;51.922;8.850;2024-01-27T13:16:10;8.95;;;3.05;;
53391;SDS011;41667;51.922;8.850;2024-01-27T13:18:35;3.70;;;2.42;;
53391;SDS011;41667;51.922;8.850;2024-01-27T13:21:01;10.30;;;2.95;;
53391;SDS011;41667;51.922;8.850;2024-01-27T13:23:26;8.57;;;3.45;;
53391;SDS011;41667;51.922;8.850;2024-01-27T13:25:52;6.20;;;2.65;;
53391;SDS011;41667;51.922;8.850;2024-01-27T13:28:17;12.20;;;3.03;;
53391;SDS011;41667;51.922;8.850;2024-01-27T13:30:42;13.32;;;3.10;;
53391;SDS011;41667;51.922;8.850;2024-01-27T13:33:08;11.60;;;2.80;;
53391;SDS011;41667;51.922;8.850;2024-01-27T13:35:33;10.27;;;3.05;;
53391;SDS011;41667;51.922;8.850;2024-01-27T13:37:58;5.75;;;3.28;;
53391;SDS011;41667;51.922;8.850;2024-01-27T13:40:24;5.72;;;2.47;;
53391;SDS011;41667;51.922;8.850;2024-01-27T13:42:49;11.35;;;4.63;;
53391;SDS011;41667;51.922;8.850;2024-01-27T13:45:14;6.97;;;3.03;;
53391;SDS011;41667;51.922;8.850;2024-01-27T13:47:39;6.50;;;3.58;;
53391;SDS011;41667;51.922;8.850;2024-01-27T13:50:05;8.65;;;3.60;;
53391;SDS011;41667;51.922;8.850;2024-01-27T13:52:31;9.52;;;2.30;;
53391;SDS011;41667;51.922;8.850;2024-01-27T13:54:56;9.40;;;2.85;;
53391;SDS011;41667;51.922;8.850;2024-01-27T13:57:22;10.05;;;2.90;;
53391;SDS011;41667;51.922;8.850;2024-01-27T13:59:47;7.25;;;2.40;;
53391;SDS011;41667;51.922;8.850;2024-01-27T14:02:12;8.52;;;3.08;;
53391;SDS011;41667;51.922;8.850;2024-01-27T14:04:38;5.97;;;2.78;;
53391;SDS011;41667;51.922;8.850;2024-01-27T14:07:03;10.60;;;3.30;;
53391;SDS011;41667;51.922;8.850;2024-01-27T14:09:31;7.45;;;2.88;;
53391;SDS011;41667;51.922;8.850;2024-01-27T14:11:57;12.07;;;4.18;;
53391;SDS011;41667;51.922;8.850;2024-01-27T14:14:22;8.20;;;2.67;;
53391;SDS011;41667;51.922;8.850;2024-01-27T14:16:48;7.57;;;2.42;;
53391;SDS011;41667;51.922;8.850;2024-01-27T14:19:13;9.77;;;1.92;;
53391;SDS011;41667;51.922;8.850;2024-01-27T14:21:38;6.57;;;2.00;;
53391;SDS011;41667;51.922;8.850;2024-01-27T14:24:04;8.43;;;2.63;;
53391;SDS011;41667;51.922;8.850;2024-01-27T14:26:31;12.00;;;2.75;;
53391;SDS011;41667;51.922;8.850;2024-01-27T14:28:56;8.55;;;2.78;;
53391;SDS011;41667;51.922;8.850;2024-01-27T14:31:22;10.40;;;2.58;;
53391;SDS011;41667;51.922;8.850;2024-01-27T14:33:51;6.28;;;2.30;;